sensor_id;sensor_type;location;lat;lon;timestamp;pressure;altitude;pressure_sealevel;temperature;humidity
11114;BME280;5610;52.154;9.198;2023-08-06T00:00:44;99846.19;;;16.89;100.00
11114;BME280;5610;52.154;9.198;2023-08-06T00:03:29;99841.81;;;16.88;100.00
11114;BME280;5610;52.154;9.198;2023-08-06T00:06:14;99842.25;;;16.83;100.00
11114;BME280;5610;52.154;9.198;2023-08-06T00:09:01;99837.03;;;16.82;100.00
11114;BME280;5610;52.154;9.198;2023-08-06T00:11:46;99835.53;;;16.79;100.00
11114;BME280;5610;52.154;9.198;2023-08-06T00:14:31;99835.84;;;16.66;100.00
11114;BME280;5610;52.154;9.198;2023-08-06T00:17:16;99843.69;;;16.60;100.00
11114;BME280;5610;52.154;9.198;2023-08-06T00:20:02;99835.94;;;16.57;100.00
11114;BME280;5610;52.154;9.198;2023-08-06T00:22:48;99828.16;;;16.54;100.00
11114;BME280;5610;52.154;9.198;2023-08-06T00:25:36;99831.00;;;16.52;100.00
11114;BME280;5610;52.154;9.198;2023-08-06T00:28:21;99824.84;;;16.42;100.00
11114;BME280;5610;52.154;9.198;2023-08-06T00:31:06;99821.94;;;16.35;100.00
11114;BME280;5610;52.154;9.198;2023-08-06T00:33:51;99816.84;;;16.32;100.00
11114;BME280;5610;52.154;9.198;2023-08-06T00:36:36;99820.22;;;16.34;100.00
11114;BME280;5610;52.154;9.198;2023-08-06T00:39:21;99815.25;;;16.39;100.00
11114;BME280;5610;52.154;9.198;2023-08-06T00:42:08;99807.72;;;16.43;100.00
11114;BME280;5610;52.154;9.198;2023-08-06T00:44:54;99808.09;;;16.48;100.00
11114;BME280;5610;52.154;9.198;2023-08-06T00:47:39;99804.13;;;16.52;100.00
11114;BME280;5610;52.154;9.198;2023-08-06T00:50:24;99809.50;;;16.52;100.00
11114;BME280;5610;52.154;9.198;2023-08-06T00:53:10;99801.81;;;16.57;100.00
11114;BME280;5610;52.154;9.198;2023-08-06T00:55:55;99794.75;;;16.56;100.00
11114;BME280;5610;52.154;9.198;2023-08-06T00:58:42;99793.28;;;16.62;100.00
11114;BME280;5610;52.154;9.198;2023-08-06T01:01:28;99784.53;;;16.60;100.00
11114;BME280;5610;52.154;9.198;2023-08-06T01:04:14;99776.00;;;16.64;100.00
11114;BME280;5610;52.154;9.198;2023-08-06T01:07:06;99767.22;;;16.62;100.00
11114;BME280;5610;52.154;9.198;2023-08-06T01:10:07;99766.53;;;16.60;100.00
11114;BME280;5610;52.154;9.198;2023-08-06T01:12:59;99757.94;;;16.57;100.00
11114;BME280;5610;52.154;9.198;2023-08-06T01:15:54;99752.41;;;16.58;100.00
11114;BME280;5610;52.154;9.198;2023-08-06T01:18:41;99746.03;;;16.59;100.00
11114;BME280;5610;52.154;9.198;2023-08-06T01:21:31;99752.09;;;16.61;100.00
11114;BME280;5610;52.154;9.198;2023-08-06T01:24:16;99750.25;;;16.62;100.00
11114;BME280;5610;52.154;9.198;2023-08-06T01:27:06;99752.66;;;16.65;100.00
11114;BME280;5610;52.154;9.198;2023-08-06T01:29:59;99752.31;;;16.68;100.00
11114;BME280;5610;52.154;9.198;2023-08-06T01:32:50;99753.16;;;16.68;100.00
11114;BME280;5610;52.154;9.198;2023-08-06T01:35:38;99746.69;;;16.71;100.00
11114;BME280;5610;52.154;9.198;2023-08-06T01:38:25;99745.94;;;16.69;100.00
11114;BME280;5610;52.154;9.198;2023-08-06T01:41:11;99751.22;;;16.70;100.00
11114;BME280;5610;52.154;9.198;2023-08-06T01:43:57;99742.41;;;16.68;100.00
11114;BME280;5610;52.154;9.198;2023-08-06T01:46:42;99745.84;;;16.70;100.00
11114;BME280;5610;52.154;9.198;2023-08-06T01:49:27;99736.75;;;16.71;100.00
11114;BME280;5610;52.154;9.198;2023-08-06T01:52:13;99731.81;;;16.67;100.00
11114;BME280;5610;52.154;9.198;2023-08-06T01:54:59;99730.13;;;16.66;100.00
11114;BME280;5610;52.154;9.198;2023-08-06T01:57:45;99723.91;;;16.65;100.00
11114;BME280;5610;52.154;9.198;2023-08-06T02:00:30;99721.66;;;16.61;100.00
11114;BME280;5610;52.154;9.198;2023-08-06T02:03:15;99727.22;;;16.59;100.00
11114;BME280;5610;52.154;9.198;2023-08-06T02:06:01;99724.19;;;16.62;100.00
11114;BME280;5610;52.154;9.198;2023-08-06T02:08:46;99708.69;;;16.56;100.00
11114;BME280;5610;52.154;9.198;2023-08-06T02:11:34;99713.06;;;16.57;100.00
11114;BME280;5610;52.154;9.198;2023-08-06T02:14:19;99707.69;;;16.57;100.00
11114;BME280;5610;52.154;9.198;2023-08-06T02:17:05;99713.38;;;16.54;100.00
11114;BME280;5610;52.154;9.198;2023-08-06T02:19:50;99705.31;;;16.54;100.00
11114;BME280;5610;52.154;9.198;2023-08-06T02:22:35;99709.00;;;16.53;100.00
11114;BME280;5610;52.154;9.198;2023-08-06T02:25:20;99712.69;;;16.52;100.00
11114;BME280;5610;52.154;9.198;2023-08-06T02:28:07;99715.38;;;16.52;100.00
11114;BME280;5610;52.154;9.198;2023-08-06T02:30:52;99714.69;;;16.50;100.00
11114;BME280;5610;52.154;9.198;2023-08-06T02:33:37;99715.38;;;16.52;100.00
11114;BME280;5610;52.154;9.198;2023-08-06T02:36:22;99711.00;;;16.51;100.00
11114;BME280;5610;52.154;9.198;2023-08-06T02:39:08;99706.09;;;16.46;100.00
11114;BME280;5610;52.154;9.198;2023-08-06T02:41:53;99713.16;;;16.47;100.00
11114;BME280;5610;52.154;9.198;2023-08-06T02:44:39;99698.34;;;16.43;100.00
11114;BME280;5610;52.154;9.198;2023-08-06T02:47:25;99691.19;;;16.34;100.00
11114;BME280;5610;52.154;9.198;2023-08-06T02:50:10;99686.34;;;16.38;100.00
11114;BME280;5610;52.154;9.198;2023-08-06T02:52:55;99680.97;;;16.38;100.00
11114;BME280;5610;52.154;9.198;2023-08-06T02:55:45;99669.78;;;16.25;100.00
11114;BME280;5610;52.154;9.198;2023-08-06T02:58:30;99666.75;;;16.28;100.00
11114;BME280;5610;52.154;9.198;2023-08-06T03:01:28;99664.47;;;16.15;100.00
11114;BME280;5610;52.154;9.198;2023-08-06T03:04:18;99662.63;;;16.15;100.00
11114;BME280;5610;52.154;9.198;2023-08-06T03:07:05;99657.56;;;16.12;100.00
11114;BME280;5610;52.154;9.198;2023-08-06T03:09:59;99650.81;;;16.08;100.00
11114;BME280;5610;52.154;9.198;2023-08-06T03:12:45;99652.66;;;16.08;100.00
11114;BME280;5610;52.154;9.198;2023-08-06T03:15:30;99641.97;;;15.98;100.00
11114;BME280;5610;52.154;9.198;2023-08-06T03:18:18;99637.44;;;15.99;100.00
11114;BME280;5610;52.154;9.198;2023-08-06T03:21:03;99642.34;;;15.85;100.00
11114;BME280;5610;52.154;9.198;2023-08-06T03:23:49;99631.00;;;15.74;100.00
11114;BME280;5610;52.154;9.198;2023-08-06T03:26:37;99630.75;;;15.67;100.00
11114;BME280;5610;52.154;9.198;2023-08-06T03:29:22;99637.56;;;15.61;100.00
11114;BME280;5610;52.154;9.198;2023-08-06T03:32:08;99634.16;;;15.59;100.00
11114;BME280;5610;52.154;9.198;2023-08-06T03:34:55;99618.66;;;15.53;100.00
11114;BME280;5610;52.154;9.198;2023-08-06T03:37:43;99623.72;;;15.56;100.00
11114;BME280;5610;52.154;9.198;2023-08-06T03:40:29;99613.56;;;15.50;100.00
11114;BME280;5610;52.154;9.198;2023-08-06T03:43:16;99613.97;;;15.55;100.00
11114;BME280;5610;52.154;9.198;2023-08-06T03:46:01;99617.34;;;15.57;100.00
11114;BME280;5610;52.154;9.198;2023-08-06T03:48:47;99611.00;;;15.58;100.00
11114;BME280;5610;52.154;9.198;2023-08-06T03:51:33;99616.38;;;15.58;100.00
11114;BME280;5610;52.154;9.198;2023-08-06T03:54:19;99610.19;;;15.48;100.00
11114;BME280;5610;52.154;9.198;2023-08-06T03:57:05;99611.03;;;15.49;100.00
11114;BME280;5610;52.154;9.198;2023-08-06T03:59:50;99622.25;;;15.44;100.00
11114;BME280;5610;52.154;9.198;2023-08-06T04:02:35;99617.16;;;15.41;100.00
11114;BME280;5610;52.154;9.198;2023-08-06T04:05:20;99615.41;;;15.32;100.00
11114;BME280;5610;52.154;9.198;2023-08-06T04:08:07;99616.56;;;15.29;100.00
11114;BME280;5610;52.154;9.198;2023-08-06T04:10:52;99612.63;;;15.24;100.00
11114;BME280;5610;52.154;9.198;2023-08-06T04:13:37;99612.47;;;15.25;100.00
11114;BME280;5610;52.154;9.198;2023-08-06T04:16:22;99610.31;;;15.29;100.00
11114;BME280;5610;52.154;9.198;2023-08-06T04:19:10;99614.31;;;15.25;100.00
11114;BME280;5610;52.154;9.198;2023-08-06T04:21:55;99618.00;;;15.24;100.00
11114;BME280;5610;52.154;9.198;2023-08-06T04:24:42;99612.16;;;15.28;100.00
11114;BME280;5610;52.154;9.198;2023-08-06T04:27:28;99626.41;;;15.29;100.00
11114;BME280;5610;52.154;9.198;2023-08-06T04:30:13;99629.06;;;15.38;100.00
11114;BME280;5610;52.154;9.198;2023-08-06T04:32:59;99628.38;;;15.36;100.00
11114;BME280;5610;52.154;9.198;2023-08-06T04:35:45;99608.13;;;15.42;100.00
11114;BME280;5610;52.154;9.198;2023-08-06T04:38:31;99623.78;;;15.47;100.00
11114;BME280;5610;52.154;9.198;2023-08-06T04:41:17;99630.69;;;15.49;100.00
11114;BME280;5610;52.154;9.198;2023-08-06T04:44:03;99627.72;;;15.52;100.00
11114;BME280;5610;52.154;9.198;2023-08-06T04:46:48;99621.34;;;15.53;100.00
11114;BME280;5610;52.154;9.198;2023-08-06T04:49:33;99626.03;;;15.51;100.00
11114;BME280;5610;52.154;9.198;2023-08-06T04:52:18;99625.19;;;15.51;100.00
11114;BME280;5610;52.154;9.198;2023-08-06T04:55:04;99631.69;;;15.48;100.00
11114;BME280;5610;52.154;9.198;2023-08-06T04:57:51;99633.28;;;15.41;100.00
11114;BME280;5610;52.154;9.198;2023-08-06T05:00:37;99637.13;;;15.38;100.00
11114;BME280;5610;52.154;9.198;2023-08-06T05:03:22;99632.44;;;15.41;100.00
11114;BME280;5610;52.154;9.198;2023-08-06T05:06:07;99633.44;;;15.39;100.00
11114;BME280;5610;52.154;9.198;2023-08-06T05:08:53;99636.97;;;15.40;100.00
11114;BME280;5610;52.154;9.198;2023-08-06T05:11:38;99637.53;;;15.44;100.00
11114;BME280;5610;52.154;9.198;2023-08-06T05:14:24;99634.44;;;15.38;100.00
11114;BME280;5610;52.154;9.198;2023-08-06T05:17:10;99635.69;;;15.44;100.00
11114;BME280;5610;52.154;9.198;2023-08-06T05:19:55;99631.59;;;15.40;100.00
11114;BME280;5610;52.154;9.198;2023-08-06T05:22:41;99631.28;;;15.43;100.00
11114;BME280;5610;52.154;9.198;2023-08-06T05:25:26;99636.88;;;15.50;100.00
11114;BME280;5610;52.154;9.198;2023-08-06T05:28:11;99632.25;;;15.52;100.00
11114;BME280;5610;52.154;9.198;2023-08-06T05:30:57;99618.06;;;15.59;100.00
11114;BME280;5610;52.154;9.198;2023-08-06T05:33:42;99624.22;;;15.70;100.00
11114;BME280;5610;52.154;9.198;2023-08-06T05:36:27;99635.22;;;15.76;100.00
11114;BME280;5610;52.154;9.198;2023-08-06T05:39:12;99633.06;;;15.80;100.00
11114;BME280;5610;52.154;9.198;2023-08-06T05:41:58;99629.91;;;15.84;100.00
11114;BME280;5610;52.154;9.198;2023-08-06T05:44:43;99632.53;;;15.94;100.00
11114;BME280;5610;52.154;9.198;2023-08-06T05:47:29;99636.31;;;16.01;100.00
11114;BME280;5610;52.154;9.198;2023-08-06T05:50:15;99635.22;;;16.12;100.00
11114;BME280;5610;52.154;9.198;2023-08-06T05:53:00;99635.59;;;16.17;100.00
11114;BME280;5610;52.154;9.198;2023-08-06T05:55:45;99633.31;;;16.22;100.00
11114;BME280;5610;52.154;9.198;2023-08-06T05:58:31;99636.06;;;16.30;100.00
11114;BME280;5610;52.154;9.198;2023-08-06T06:01:16;99641.50;;;16.38;100.00
11114;BME280;5610;52.154;9.198;2023-08-06T06:04:03;99640.38;;;16.49;100.00
11114;BME280;5610;52.154;9.198;2023-08-06T06:06:48;99635.75;;;16.59;100.00
11114;BME280;5610;52.154;9.198;2023-08-06T06:09:33;99635.91;;;16.75;100.00
11114;BME280;5610;52.154;9.198;2023-08-06T06:12:18;99630.44;;;16.85;100.00
11114;BME280;5610;52.154;9.198;2023-08-06T06:15:04;99629.63;;;16.93;100.00
11114;BME280;5610;52.154;9.198;2023-08-06T06:17:49;99629.75;;;16.91;100.00
11114;BME280;5610;52.154;9.198;2023-08-06T06:20:35;99621.97;;;16.80;100.00
11114;BME280;5610;52.154;9.198;2023-08-06T06:23:21;99619.81;;;16.84;100.00
11114;BME280;5610;52.154;9.198;2023-08-06T06:26:06;99617.56;;;16.71;100.00
11114;BME280;5610;52.154;9.198;2023-08-06T06:28:51;99626.91;;;16.85;100.00
11114;BME280;5610;52.154;9.198;2023-08-06T06:31:36;99613.94;;;17.14;100.00
11114;BME280;5610;52.154;9.198;2023-08-06T06:34:21;99621.16;;;17.56;100.00
11114;BME280;5610;52.154;9.198;2023-08-06T06:37:08;99609.78;;;17.87;100.00
11114;BME280;5610;52.154;9.198;2023-08-06T06:39:53;99601.69;;;18.11;100.00
11114;BME280;5610;52.154;9.198;2023-08-06T06:42:38;99593.94;;;18.57;100.00
11114;BME280;5610;52.154;9.198;2023-08-06T06:45:25;99598.38;;;19.05;100.00
11114;BME280;5610;52.154;9.198;2023-08-06T06:48:10;99603.63;;;19.46;100.00
11114;BME280;5610;52.154;9.198;2023-08-06T06:50:56;99594.69;;;19.77;100.00
11114;BME280;5610;52.154;9.198;2023-08-06T06:53:42;99598.84;;;20.10;100.00
11114;BME280;5610;52.154;9.198;2023-08-06T06:56:27;99594.31;;;20.25;100.00
11114;BME280;5610;52.154;9.198;2023-08-06T06:59:12;99584.69;;;20.46;100.00
11114;BME280;5610;52.154;9.198;2023-08-06T07:01:57;99578.56;;;20.67;100.00
11114;BME280;5610;52.154;9.198;2023-08-06T07:04:42;99585.66;;;20.82;100.00
11114;BME280;5610;52.154;9.198;2023-08-06T07:07:27;99586.50;;;20.83;100.00
11114;BME280;5610;52.154;9.198;2023-08-06T07:10:14;99581.06;;;20.68;100.00
11114;BME280;5610;52.154;9.198;2023-08-06T07:12:59;99576.00;;;20.50;100.00
11114;BME280;5610;52.154;9.198;2023-08-06T07:15:44;99583.41;;;20.34;100.00
11114;BME280;5610;52.154;9.198;2023-08-06T07:18:29;99580.97;;;20.24;100.00
11114;BME280;5610;52.154;9.198;2023-08-06T07:21:15;99579.59;;;20.05;100.00
11114;BME280;5610;52.154;9.198;2023-08-06T07:24:00;99574.69;;;20.09;100.00
11114;BME280;5610;52.154;9.198;2023-08-06T07:26:47;99571.03;;;20.01;100.00
11114;BME280;5610;52.154;9.198;2023-08-06T07:29:32;99574.78;;;20.15;100.00
11114;BME280;5610;52.154;9.198;2023-08-06T07:32:17;99566.34;;;20.33;100.00
11114;BME280;5610;52.154;9.198;2023-08-06T07:35:02;99560.91;;;20.56;100.00
11114;BME280;5610;52.154;9.198;2023-08-06T07:37:48;99565.97;;;20.89;100.00
11114;BME280;5610;52.154;9.198;2023-08-06T07:40:35;99561.66;;;21.09;100.00
11114;BME280;5610;52.154;9.198;2023-08-06T07:43:21;99555.75;;;21.20;100.00
11114;BME280;5610;52.154;9.198;2023-08-06T07:46:07;99567.50;;;21.42;100.00
11114;BME280;5610;52.154;9.198;2023-08-06T07:48:52;99567.88;;;21.75;100.00
11114;BME280;5610;52.154;9.198;2023-08-06T07:51:38;99569.19;;;22.22;100.00
11114;BME280;5610;52.154;9.198;2023-08-06T07:54:23;99560.03;;;22.51;100.00
11114;BME280;5610;52.154;9.198;2023-08-06T07:57:08;99561.88;;;22.79;100.00
11114;BME280;5610;52.154;9.198;2023-08-06T07:59:55;99561.84;;;22.44;100.00
11114;BME280;5610;52.154;9.198;2023-08-06T08:02:41;99557.91;;;22.46;100.00
11114;BME280;5610;52.154;9.198;2023-08-06T08:05:26;99554.78;;;22.22;100.00
11114;BME280;5610;52.154;9.198;2023-08-06T08:08:12;99557.72;;;22.27;100.00
11114;BME280;5610;52.154;9.198;2023-08-06T08:10:57;99549.81;;;22.53;100.00
11114;BME280;5610;52.154;9.198;2023-08-06T08:13:43;99542.69;;;22.52;100.00
11114;BME280;5610;52.154;9.198;2023-08-06T08:16:29;99546.59;;;22.71;100.00
11114;BME280;5610;52.154;9.198;2023-08-06T08:19:15;99551.19;;;22.70;100.00
11114;BME280;5610;52.154;9.198;2023-08-06T08:22:00;99544.97;;;22.77;100.00
11114;BME280;5610;52.154;9.198;2023-08-06T08:24:45;99543.22;;;22.69;100.00
11114;BME280;5610;52.154;9.198;2023-08-06T08:27:30;99548.63;;;22.97;100.00
11114;BME280;5610;52.154;9.198;2023-08-06T08:30:15;99542.66;;;23.15;100.00
11114;BME280;5610;52.154;9.198;2023-08-06T08:33:02;99540.34;;;23.73;100.00
11114;BME280;5610;52.154;9.198;2023-08-06T08:35:48;99534.78;;;24.41;100.00
11114;BME280;5610;52.154;9.198;2023-08-06T08:38:33;99536.94;;;25.03;100.00
11114;BME280;5610;52.154;9.198;2023-08-06T08:41:18;99526.72;;;25.43;100.00
11114;BME280;5610;52.154;9.198;2023-08-06T08:44:05;99527.00;;;25.73;100.00
11114;BME280;5610;52.154;9.198;2023-08-06T08:46:52;99534.59;;;26.21;100.00
11114;BME280;5610;52.154;9.198;2023-08-06T08:49:40;99535.72;;;26.64;100.00
11114;BME280;5610;52.154;9.198;2023-08-06T08:52:26;99528.38;;;26.82;100.00
11114;BME280;5610;52.154;9.198;2023-08-06T08:55:14;99527.25;;;26.72;100.00
11114;BME280;5610;52.154;9.198;2023-08-06T08:58:00;99530.66;;;26.42;100.00
11114;BME280;5610;52.154;9.198;2023-08-06T09:00:46;99533.28;;;26.55;100.00
11114;BME280;5610;52.154;9.198;2023-08-06T09:03:31;99530.56;;;26.74;100.00
11114;BME280;5610;52.154;9.198;2023-08-06T09:06:19;99522.00;;;26.89;100.00
11114;BME280;5610;52.154;9.198;2023-08-06T09:09:08;99533.22;;;26.37;92.72
11114;BME280;5610;52.154;9.198;2023-08-06T09:11:57;99535.53;;;26.15;95.10
11114;BME280;5610;52.154;9.198;2023-08-06T09:14:44;99533.63;;;25.84;100.00
11114;BME280;5610;52.154;9.198;2023-08-06T09:17:30;99534.88;;;25.50;100.00
11114;BME280;5610;52.154;9.198;2023-08-06T09:20:16;99539.44;;;25.18;100.00
11114;BME280;5610;52.154;9.198;2023-08-06T09:23:08;99531.16;;;24.73;100.00
11114;BME280;5610;52.154;9.198;2023-08-06T09:25:54;99533.50;;;24.30;100.00
11114;BME280;5610;52.154;9.198;2023-08-06T09:28:39;99528.25;;;23.89;100.00
11114;BME280;5610;52.154;9.198;2023-08-06T09:31:32;99530.44;;;23.45;100.00
11114;BME280;5610;52.154;9.198;2023-08-06T09:34:18;99533.16;;;22.91;100.00
11114;BME280;5610;52.154;9.198;2023-08-06T09:37:04;99534.66;;;22.37;100.00
11114;BME280;5610;52.154;9.198;2023-08-06T09:39:50;99548.75;;;22.05;100.00
11114;BME280;5610;52.154;9.198;2023-08-06T09:42:37;99553.03;;;21.71;100.00
11114;BME280;5610;52.154;9.198;2023-08-06T09:45:30;99560.53;;;21.18;100.00
11114;BME280;5610;52.154;9.198;2023-08-06T09:48:16;99554.28;;;20.59;100.00
11114;BME280;5610;52.154;9.198;2023-08-06T09:51:02;99550.69;;;20.06;100.00
11114;BME280;5610;52.154;9.198;2023-08-06T09:53:49;99550.47;;;19.69;100.00
11114;BME280;5610;52.154;9.198;2023-08-06T09:56:37;99555.16;;;19.44;100.00
11114;BME280;5610;52.154;9.198;2023-08-06T09:59:23;99555.06;;;19.30;100.00
11114;BME280;5610;52.154;9.198;2023-08-06T10:02:12;99560.13;;;19.33;100.00
11114;BME280;5610;52.154;9.198;2023-08-06T10:04:58;99556.88;;;19.37;100.00
11114;BME280;5610;52.154;9.198;2023-08-06T10:07:44;99560.13;;;19.33;100.00
11114;BME280;5610;52.154;9.198;2023-08-06T10:10:31;99556.09;;;19.29;100.00
11114;BME280;5610;52.154;9.198;2023-08-06T10:13:20;99547.16;;;19.28;100.00
11114;BME280;5610;52.154;9.198;2023-08-06T10:16:06;99543.97;;;19.25;100.00
11114;BME280;5610;52.154;9.198;2023-08-06T10:18:53;99545.59;;;19.34;100.00
11114;BME280;5610;52.154;9.198;2023-08-06T10:21:39;99544.78;;;19.56;100.00
11114;BME280;5610;52.154;9.198;2023-08-06T10:24:24;99543.06;;;19.86;100.00
11114;BME280;5610;52.154;9.198;2023-08-06T10:27:09;99532.81;;;20.19;100.00
11114;BME280;5610;52.154;9.198;2023-08-06T10:29:56;99537.66;;;20.47;100.00
11114;BME280;5610;52.154;9.198;2023-08-06T10:33:02;99524.88;;;20.70;100.00
11114;BME280;5610;52.154;9.198;2023-08-06T10:35:48;99526.91;;;20.98;100.00
11114;BME280;5610;52.154;9.198;2023-08-06T10:38:34;99526.22;;;21.40;100.00
11114;BME280;5610;52.154;9.198;2023-08-06T10:41:23;99527.19;;;21.97;100.00
11114;BME280;5610;52.154;9.198;2023-08-06T10:44:11;99519.44;;;22.71;100.00
11114;BME280;5610;52.154;9.198;2023-08-06T10:47:27;99511.03;;;23.55;100.00
11114;BME280;5610;52.154;9.198;2023-08-06T10:50:15;99509.72;;;23.38;100.00
11114;BME280;5610;52.154;9.198;2023-08-06T10:53:04;99514.91;;;23.26;100.00
11114;BME280;5610;52.154;9.198;2023-08-06T10:55:50;99516.13;;;23.17;100.00
11114;BME280;5610;52.154;9.198;2023-08-06T10:58:35;99505.47;;;23.15;100.00
11114;BME280;5610;52.154;9.198;2023-08-06T11:01:21;99514.88;;;23.19;100.00
11114;BME280;5610;52.154;9.198;2023-08-06T11:04:08;99500.94;;;23.36;100.00
11114;BME280;5610;52.154;9.198;2023-08-06T11:07:00;99504.09;;;23.52;100.00
11114;BME280;5610;52.154;9.198;2023-08-06T11:09:50;99502.50;;;23.71;100.00
11114;BME280;5610;52.154;9.198;2023-08-06T11:12:36;99499.38;;;24.07;100.00
11114;BME280;5610;52.154;9.198;2023-08-06T11:15:22;99498.97;;;24.37;100.00
11114;BME280;5610;52.154;9.198;2023-08-06T11:18:08;99494.72;;;24.68;100.00
11114;BME280;5610;52.154;9.198;2023-08-06T11:20:55;99503.25;;;24.91;100.00
11114;BME280;5610;52.154;9.198;2023-08-06T11:23:40;99494.75;;;25.19;100.00
11114;BME280;5610;52.154;9.198;2023-08-06T11:26:26;99491.22;;;25.50;100.00
11114;BME280;5610;52.154;9.198;2023-08-06T11:29:12;99489.34;;;26.32;100.00
11114;BME280;5610;52.154;9.198;2023-08-06T11:32:03;99483.59;;;27.62;100.00
11114;BME280;5610;52.154;9.198;2023-08-06T11:34:49;99480.34;;;28.49;97.26
11114;BME280;5610;52.154;9.198;2023-08-06T11:37:36;99475.75;;;28.66;94.48
11114;BME280;5610;52.154;9.198;2023-08-06T11:40:21;99476.53;;;29.13;81.77
11114;BME280;5610;52.154;9.198;2023-08-06T11:43:07;99471.66;;;31.76;71.49
11114;BME280;5610;52.154;9.198;2023-08-06T11:45:55;99471.63;;;35.76;54.41
11114;BME280;5610;52.154;9.198;2023-08-06T11:48:53;99466.97;;;39.71;42.03
11114;BME280;5610;52.154;9.198;2023-08-06T11:51:39;99455.69;;;39.99;41.85
11114;BME280;5610;52.154;9.198;2023-08-06T11:54:31;99452.97;;;38.58;42.33
11114;BME280;5610;52.154;9.198;2023-08-06T11:57:18;99456.75;;;39.89;43.33
11114;BME280;5610;52.154;9.198;2023-08-06T12:00:03;99444.44;;;42.57;39.17
11114;BME280;5610;52.154;9.198;2023-08-06T12:02:56;99436.16;;;45.09;33.60
11114;BME280;5610;52.154;9.198;2023-08-06T12:05:44;99430.38;;;46.74;32.15
11114;BME280;5610;52.154;9.198;2023-08-06T12:08:30;99424.78;;;47.28;29.94
11114;BME280;5610;52.154;9.198;2023-08-06T12:11:17;99422.25;;;47.58;30.93
11114;BME280;5610;52.154;9.198;2023-08-06T12:14:02;99414.91;;;45.36;32.29
11114;BME280;5610;52.154;9.198;2023-08-06T12:16:47;99419.16;;;46.30;31.66
11114;BME280;5610;52.154;9.198;2023-08-06T12:19:33;99420.44;;;47.31;30.43
11114;BME280;5610;52.154;9.198;2023-08-06T12:22:18;99425.56;;;48.03;30.06
11114;BME280;5610;52.154;9.198;2023-08-06T12:25:05;99417.59;;;48.08;29.55
11114;BME280;5610;52.154;9.198;2023-08-06T12:27:53;99411.38;;;48.45;27.79
11114;BME280;5610;52.154;9.198;2023-08-06T12:30:39;99417.50;;;49.00;27.05
11114;BME280;5610;52.154;9.198;2023-08-06T12:33:25;99416.28;;;49.58;27.12
11114;BME280;5610;52.154;9.198;2023-08-06T12:36:10;99409.41;;;49.59;25.79
11114;BME280;5610;52.154;9.198;2023-08-06T12:38:56;99405.03;;;49.98;26.41
11114;BME280;5610;52.154;9.198;2023-08-06T12:41:41;99406.00;;;50.13;24.65
11114;BME280;5610;52.154;9.198;2023-08-06T12:44:29;99407.59;;;49.73;26.63
11114;BME280;5610;52.154;9.198;2023-08-06T12:47:16;99414.56;;;48.21;25.77
11114;BME280;5610;52.154;9.198;2023-08-06T12:50:01;99406.13;;;48.44;26.55
11114;BME280;5610;52.154;9.198;2023-08-06T12:52:46;99394.47;;;48.49;26.86
11114;BME280;5610;52.154;9.198;2023-08-06T12:55:32;99393.25;;;48.99;25.22
11114;BME280;5610;52.154;9.198;2023-08-06T12:58:17;99403.03;;;49.69;26.16
11114;BME280;5610;52.154;9.198;2023-08-06T13:01:04;99394.88;;;49.60;26.29
11114;BME280;5610;52.154;9.198;2023-08-06T13:03:49;99396.25;;;48.83;25.95
11114;BME280;5610;52.154;9.198;2023-08-06T13:06:34;99394.56;;;47.87;25.55
11114;BME280;5610;52.154;9.198;2023-08-06T13:09:20;99384.59;;;48.62;25.81
11114;BME280;5610;52.154;9.198;2023-08-06T13:12:06;99384.50;;;48.81;25.89
11114;BME280;5610;52.154;9.198;2023-08-06T13:14:51;99378.94;;;49.15;25.09
11114;BME280;5610;52.154;9.198;2023-08-06T13:17:38;99375.31;;;49.82;24.13
11114;BME280;5610;52.154;9.198;2023-08-06T13:20:23;99371.22;;;50.16;24.95
11114;BME280;5610;52.154;9.198;2023-08-06T13:23:09;99370.72;;;50.07;24.50
11114;BME280;5610;52.154;9.198;2023-08-06T13:25:54;99365.78;;;50.45;24.92
11114;BME280;5610;52.154;9.198;2023-08-06T13:28:39;99371.91;;;50.06;23.65
11114;BME280;5610;52.154;9.198;2023-08-06T13:31:26;99371.78;;;49.92;23.80
11114;BME280;5610;52.154;9.198;2023-08-06T13:34:12;99366.69;;;49.71;25.54
11114;BME280;5610;52.154;9.198;2023-08-06T13:36:58;99374.75;;;49.35;23.70
11114;BME280;5610;52.154;9.198;2023-08-06T13:39:44;99373.69;;;48.87;25.69
11114;BME280;5610;52.154;9.198;2023-08-06T13:42:29;99368.84;;;49.17;24.84
11114;BME280;5610;52.154;9.198;2023-08-06T13:45:16;99376.59;;;47.56;25.60
11114;BME280;5610;52.154;9.198;2023-08-06T13:48:01;99376.25;;;44.20;28.93
11114;BME280;5610;52.154;9.198;2023-08-06T13:50:48;99374.81;;;44.75;28.66
11114;BME280;5610;52.154;9.198;2023-08-06T13:53:34;99377.91;;;47.04;25.55
11114;BME280;5610;52.154;9.198;2023-08-06T13:56:19;99387.63;;;46.72;25.81
11114;BME280;5610;52.154;9.198;2023-08-06T13:59:04;99381.13;;;45.77;26.87
11114;BME280;5610;52.154;9.198;2023-08-06T14:01:50;99377.81;;;43.00;28.77
11114;BME280;5610;52.154;9.198;2023-08-06T14:04:37;99376.50;;;40.08;32.96
11114;BME280;5610;52.154;9.198;2023-08-06T14:07:25;99377.22;;;37.68;34.13
11114;BME280;5610;52.154;9.198;2023-08-06T14:10:10;99388.00;;;35.69;37.87
11114;BME280;5610;52.154;9.198;2023-08-06T14:12:55;99394.44;;;34.61;39.74
11114;BME280;5610;52.154;9.198;2023-08-06T14:15:41;99379.06;;;33.27;41.46
11114;BME280;5610;52.154;9.198;2023-08-06T14:18:30;99387.00;;;32.36;43.97
11114;BME280;5610;52.154;9.198;2023-08-06T14:21:15;99393.34;;;31.35;47.29
11114;BME280;5610;52.154;9.198;2023-08-06T14:24:02;99395.63;;;30.50;49.67
11114;BME280;5610;52.154;9.198;2023-08-06T14:26:47;99402.03;;;29.50;51.77
11114;BME280;5610;52.154;9.198;2023-08-06T14:29:32;99401.84;;;28.83;54.91
11114;BME280;5610;52.154;9.198;2023-08-06T14:32:17;99401.22;;;28.29;56.84
11114;BME280;5610;52.154;9.198;2023-08-06T14:35:04;99402.19;;;27.87;59.25
11114;BME280;5610;52.154;9.198;2023-08-06T14:37:49;99410.34;;;27.64;65.38
11114;BME280;5610;52.154;9.198;2023-08-06T14:40:35;99425.59;;;27.72;66.29
11114;BME280;5610;52.154;9.198;2023-08-06T14:43:21;99423.03;;;28.35;64.69